createdAt,value
2017-10-18T00:01:38.439Z,98.17
2017-10-18T00:04:12.273Z,112.27
2017-10-18T00:06:49.579Z,126.33
2017-10-18T00:09:23.274Z,133.37
2017-10-18T00:11:57.744Z,117.77
2017-10-18T00:14:31.618Z,109.90
2017-10-18T00:17:06.494Z,87.77
2017-10-18T00:19:40.338Z,112.40
2017-10-18T00:22:14.248Z,102.50
2017-10-18T00:24:47.976Z,88.93
2017-10-18T00:27:21.641Z,82.03
2017-10-18T00:29:55.324Z,68.10
2017-10-18T00:32:29.132Z,71.70
2017-10-18T00:35:02.728Z,79.50
2017-10-18T00:37:37.329Z,74.03
2017-10-18T00:40:10.932Z,72.23
2017-10-18T00:42:44.769Z,69.13
2017-10-18T00:45:20.217Z,75.40
2017-10-18T00:47:54.838Z,67.13
2017-10-18T00:50:28.565Z,66.63
2017-10-18T00:53:02.330Z,62.27
2017-10-18T00:55:36.870Z,58.40
2017-10-18T00:58:11.289Z,61.03
2017-10-18T01:00:44.929Z,52.60
2017-10-18T01:03:18.661Z,68.67
2017-10-18T01:05:52.429Z,59.63
2017-10-18T01:08:26.371Z,62.30
2017-10-18T01:11:00.231Z,73.70
2017-10-18T01:13:33.990Z,64.03
2017-10-18T01:16:08.433Z,71.27
2017-10-18T01:18:47.677Z,66.93
2017-10-18T01:21:21.303Z,63.60
2017-10-18T01:23:55.085Z,60.17
2017-10-18T01:26:28.883Z,76.63
2017-10-18T01:29:02.458Z,60.30
2017-10-18T01:31:36.905Z,64.63
2017-10-18T01:34:10.645Z,58.60
2017-10-18T01:36:44.314Z,64.03
2017-10-18T01:39:18.022Z,63.27
2017-10-18T01:41:51.692Z,61.17
2017-10-18T01:44:25.492Z,67.00
2017-10-18T01:46:59.807Z,63.10
2017-10-18T01:49:33.421Z,70.27
2017-10-18T01:52:07.063Z,66.43
2017-10-18T01:54:40.952Z,67.37
2017-10-18T01:57:14.773Z,69.60
2017-10-18T01:59:48.465Z,73.23
2017-10-18T02:02:22.033Z,64.13
2017-10-18T02:04:55.836Z,72.80
2017-10-18T02:07:29.649Z,76.13
2017-10-18T02:10:04.248Z,77.43
2017-10-18T02:12:38.026Z,93.00
2017-10-18T02:15:11.796Z,87.47
2017-10-18T02:17:45.614Z,98.37
2017-10-18T02:20:19.358Z,102.67
2017-10-18T02:22:52.921Z,89.03
2017-10-18T02:25:26.695Z,92.37
2017-10-18T02:28:00.546Z,97.90
2017-10-18T02:30:34.382Z,90.50
2017-10-18T02:33:08.128Z,88.30
2017-10-18T02:35:41.887Z,81.83
2017-10-18T02:38:15.518Z,76.33
2017-10-18T02:40:49.327Z,61.63
2017-10-18T02:43:23.133Z,71.30
2017-10-18T02:45:56.968Z,60.70
2017-10-18T02:48:30.812Z,60.83
2017-10-18T02:51:05.557Z,51.80
2017-10-18T02:53:39.169Z,55.07
2017-10-18T02:56:12.902Z,68.87
2017-10-18T02:58:46.664Z,70.33
2017-10-18T03:01:21.214Z,60.43
2017-10-18T03:03:54.985Z,72.57
2017-10-18T03:06:28.728Z,80.03
2017-10-18T03:09:02.520Z,81.60
2017-10-18T03:11:36.324Z,74.93
2017-10-18T03:14:10.084Z,72.87
2017-10-18T03:16:43.880Z,80.00
2017-10-18T03:19:21.542Z,68.00
2017-10-18T03:21:55.360Z,75.77
2017-10-18T03:24:29.097Z,66.17
2017-10-18T03:27:02.789Z,72.60
2017-10-18T03:29:36.588Z,69.40
2017-10-18T03:32:10.394Z,53.93
2017-10-18T03:34:43.982Z,52.93
2017-10-18T03:37:17.772Z,55.33
2017-10-18T03:39:51.627Z,51.70
2017-10-18T03:42:25.405Z,46.70
2017-10-18T03:44:59.141Z,47.77
2017-10-18T03:47:33.722Z,50.50
2017-10-18T03:50:07.357Z,51.07
2017-10-18T03:52:41.157Z,47.93
2017-10-18T03:55:14.984Z,42.97
2017-10-18T03:57:49.544Z,47.30
2017-10-18T04:00:23.368Z,49.00
2017-10-18T04:02:57.883Z,48.80
2017-10-18T04:05:31.685Z,46.90
2017-10-18T04:08:06.961Z,52.60
2017-10-18T04:10:41.467Z,42.30
2017-10-18T04:13:16.010Z,42.47
2017-10-18T04:15:49.721Z,44.83
2017-10-18T04:18:24.289Z,45.10
2017-10-18T04:20:58.717Z,47.77
2017-10-18T04:23:33.250Z,42.73
2017-10-18T04:26:07.130Z,43.93
2017-10-18T04:28:40.760Z,39.67
2017-10-18T04:31:14.524Z,43.33
2017-10-18T04:33:48.245Z,44.17
2017-10-18T04:36:22.822Z,49.97
2017-10-18T04:38:56.592Z,45.00
2017-10-18T04:41:31.240Z,40.80
2017-10-18T04:44:05.837Z,45.00
2017-10-18T04:46:39.746Z,59.47
2017-10-18T04:49:13.585Z,41.23
2017-10-18T04:51:47.384Z,45.50
2017-10-18T04:54:21.168Z,41.13
2017-10-18T04:56:54.805Z,46.13
2017-10-18T04:59:29.326Z,45.57
2017-10-18T05:02:03.037Z,49.70
2017-10-18T05:04:36.875Z,51.37
2017-10-18T05:07:11.550Z,47.37
2017-10-18T05:09:46.053Z,44.53
2017-10-18T05:12:19.761Z,40.87
2017-10-18T05:14:53.598Z,44.47
2017-10-18T05:17:28.227Z,50.60
2017-10-18T05:20:02.095Z,42.63
2017-10-18T05:22:36.553Z,48.50
2017-10-18T05:25:10.207Z,49.67
2017-10-18T05:27:43.961Z,49.60
2017-10-18T05:30:17.844Z,57.27
2017-10-18T05:32:51.547Z,48.07
2017-10-18T05:35:25.362Z,49.67
2017-10-18T05:37:59.062Z,52.33
2017-10-18T05:40:32.839Z,51.47
2017-10-18T05:43:06.467Z,48.47
2017-10-18T05:45:40.167Z,50.70
2017-10-18T05:48:14.694Z,46.50
2017-10-18T05:50:49.293Z,48.93
2017-10-18T05:53:22.893Z,57.70
2017-10-18T05:55:56.660Z,55.67
2017-10-18T05:58:30.301Z,50.47
2017-10-18T06:01:04.817Z,54.43
2017-10-18T06:03:38.390Z,49.60
2017-10-18T06:06:11.994Z,48.13
2017-10-18T06:08:45.798Z,52.77
2017-10-18T06:11:19.563Z,47.90
2017-10-18T06:13:53.260Z,53.43
2017-10-18T06:16:27.044Z,43.93
2017-10-18T06:19:01.568Z,47.43
2017-10-18T06:21:36.089Z,39.70
2017-10-18T06:24:09.931Z,42.63
2017-10-18T06:26:44.755Z,42.20
2017-10-18T06:29:18.395Z,41.30
2017-10-18T06:31:52.129Z,45.13
2017-10-18T06:34:25.793Z,45.60
2017-10-18T06:36:59.474Z,39.70
2017-10-18T06:39:34.083Z,41.10
2017-10-18T06:42:08.485Z,50.00
2017-10-18T06:44:42.317Z,45.17
2017-10-18T06:47:16.080Z,48.37
2017-10-18T06:49:49.765Z,53.17
2017-10-18T06:52:23.528Z,40.90
2017-10-18T06:54:57.103Z,50.07
2017-10-18T06:57:31.621Z,47.73
2017-10-18T07:00:05.227Z,50.00
2017-10-18T07:02:39.847Z,39.77
2017-10-18T07:05:14.500Z,42.33
2017-10-18T07:07:49.132Z,49.23
2017-10-18T07:10:22.772Z,45.40
2017-10-18T07:12:56.580Z,37.20
2017-10-18T07:15:30.349Z,46.03
2017-10-18T07:18:04.147Z,46.73
2017-10-18T07:20:38.064Z,41.47
2017-10-18T07:23:11.804Z,45.40
2017-10-18T07:25:45.641Z,44.93
2017-10-18T07:28:19.469Z,35.37
2017-10-18T07:30:53.036Z,41.23
2017-10-18T07:33:26.845Z,36.37
2017-10-18T07:36:00.621Z,41.60
2017-10-18T07:38:35.175Z,48.80
2017-10-18T07:41:08.999Z,48.63
2017-10-18T07:43:42.754Z,59.33
2017-10-18T07:46:16.505Z,41.20
2017-10-18T07:48:50.303Z,50.50
2017-10-18T07:51:24.077Z,52.83
2017-10-18T07:53:57.861Z,53.37
2017-10-18T07:56:31.662Z,58.00
2017-10-18T07:59:05.525Z,47.43
2017-10-18T08:01:39.240Z,52.47
2017-10-18T08:04:13.036Z,50.13
2017-10-18T08:06:46.807Z,53.47
2017-10-18T08:09:20.501Z,51.80
2017-10-18T08:11:54.181Z,53.20
2017-10-18T08:14:28.753Z,61.23
2017-10-18T08:17:02.389Z,64.00
2017-10-18T08:19:36.169Z,78.57
2017-10-18T08:22:09.948Z,76.23
2017-10-18T08:24:43.654Z,70.47
2017-10-18T08:27:17.502Z,61.93
2017-10-18T08:29:51.308Z,62.40
2017-10-18T08:32:25.756Z,78.17
2017-10-18T08:34:59.453Z,64.80
2017-10-18T08:37:33.303Z,77.10
2017-10-18T08:40:07.832Z,82.23
2017-10-18T08:42:41.450Z,85.97
2017-10-18T08:45:15.165Z,79.53
2017-10-18T08:47:49.020Z,90.50
2017-10-18T08:50:23.569Z,95.30
2017-10-18T08:52:57.315Z,97.60
2017-10-18T08:55:31.004Z,94.70
2017-10-18T08:58:04.836Z,86.53
2017-10-18T09:00:38.593Z,81.73
2017-10-18T09:03:12.445Z,80.77
2017-10-18T09:05:46.969Z,77.73
2017-10-18T09:08:20.796Z,76.17
2017-10-18T09:10:54.531Z,66.83
2017-10-18T09:13:28.338Z,81.57
2017-10-18T09:16:02.062Z,68.80
2017-10-18T09:18:35.835Z,82.93
2017-10-18T09:21:09.652Z,70.47
2017-10-18T09:23:43.312Z,78.70
2017-10-18T09:26:17.106Z,69.80
2017-10-18T09:28:51.069Z,66.33
2017-10-18T09:31:24.800Z,64.73
2017-10-18T09:33:58.553Z,70.33
2017-10-18T09:36:32.273Z,64.73
2017-10-18T09:39:05.886Z,59.43
2017-10-18T09:41:39.633Z,62.73
2017-10-18T09:44:13.326Z,60.13
2017-10-18T09:46:47.984Z,65.93
2017-10-18T09:49:21.764Z,65.37
2017-10-18T09:51:55.504Z,75.80
2017-10-18T09:54:29.137Z,78.83
2017-10-18T09:57:02.858Z,89.13
2017-10-18T09:59:36.606Z,79.40
2017-10-18T10:02:10.334Z,86.27
2017-10-18T10:04:44.106Z,86.40
2017-10-18T10:07:17.920Z,83.00
2017-10-18T10:09:51.696Z,84.37
2017-10-18T10:12:25.464Z,94.60
2017-10-18T10:14:59.161Z,84.07
2017-10-18T10:17:32.860Z,77.60
2017-10-18T10:20:07.298Z,89.67
2017-10-18T10:22:41.039Z,89.37
2017-10-18T10:25:14.709Z,81.60
2017-10-18T10:27:48.543Z,77.37
2017-10-18T10:30:22.248Z,78.20
2017-10-18T10:32:56.150Z,85.30
2017-10-18T10:35:29.956Z,95.97
2017-10-18T10:38:03.733Z,81.23
2017-10-18T10:40:37.504Z,84.60
2017-10-18T10:43:11.258Z,84.40
2017-10-18T10:45:44.956Z,80.07
2017-10-18T10:48:18.673Z,75.07
2017-10-18T10:50:52.378Z,70.00
2017-10-18T10:53:26.855Z,60.97
2017-10-18T10:56:00.581Z,67.33
2017-10-18T10:58:34.312Z,67.67
2017-10-18T11:01:08.149Z,65.07
2017-10-18T11:03:41.894Z,58.17
2017-10-18T11:06:15.644Z,59.43
2017-10-18T11:08:49.434Z,65.60
2017-10-18T11:11:23.952Z,59.60
2017-10-18T11:13:57.736Z,55.90
2017-10-18T11:16:32.552Z,61.30
2017-10-18T11:19:06.145Z,59.83
2017-10-18T11:21:40.025Z,66.07
2017-10-18T11:24:13.808Z,52.77
2017-10-18T11:26:48.428Z,57.27
2017-10-18T11:29:22.108Z,55.27
2017-10-18T11:31:56.564Z,50.67
2017-10-18T11:34:30.393Z,51.63
2017-10-18T11:37:04.119Z,59.50
2017-10-18T11:39:37.858Z,53.20
2017-10-18T11:42:11.575Z,58.67
2017-10-18T11:44:45.356Z,57.50
2017-10-18T11:47:20.041Z,54.67
2017-10-18T11:49:54.625Z,58.60
2017-10-18T11:52:28.388Z,52.50
2017-10-18T11:55:02.917Z,51.53
2017-10-18T11:57:36.641Z,60.03
2017-10-18T12:00:10.377Z,51.70
2017-10-18T12:02:45.187Z,50.77
2017-10-18T12:05:19.068Z,48.10
2017-10-18T12:07:52.845Z,47.27
2017-10-18T12:10:26.456Z,55.10
2017-10-18T12:13:00.064Z,54.77
2017-10-18T12:15:33.879Z,68.20
2017-10-18T12:18:07.849Z,58.50
2017-10-18T12:20:42.314Z,55.30
2017-10-18T12:23:16.044Z,51.40
2017-10-18T12:25:50.514Z,49.93
2017-10-18T12:28:24.520Z,46.80
2017-10-18T12:30:58.349Z,47.50
2017-10-18T12:33:32.010Z,60.93
2017-10-18T12:36:05.736Z,67.77
2017-10-18T12:38:39.352Z,71.80
2017-10-18T12:41:13.196Z,52.70
2017-10-18T12:43:46.799Z,50.63
2017-10-18T12:46:20.405Z,49.73
2017-10-18T12:48:54.083Z,44.87
2017-10-18T12:51:28.016Z,48.07
2017-10-18T12:54:01.825Z,43.40
2017-10-18T12:56:35.425Z,53.43
2017-10-18T12:59:09.033Z,45.23
2017-10-18T13:01:42.804Z,42.47
2017-10-18T13:04:16.472Z,47.17
2017-10-18T13:06:51.012Z,50.50
2017-10-18T13:09:24.722Z,56.63
2017-10-18T13:11:58.420Z,65.43
2017-10-18T13:14:32.250Z,67.10
2017-10-18T13:17:05.871Z,65.30
2017-10-18T13:19:39.467Z,70.63
2017-10-18T13:22:13.296Z,66.90
2017-10-18T13:24:47.153Z,60.10
2017-10-18T13:27:20.952Z,52.20
2017-10-18T13:29:54.778Z,47.10
2017-10-18T13:32:28.583Z,51.83
2017-10-18T13:35:03.250Z,50.37
2017-10-18T13:37:36.987Z,48.90
2017-10-18T13:40:10.782Z,44.83
2017-10-18T13:42:44.549Z,45.87
2017-10-18T13:45:18.381Z,43.77
2017-10-18T13:47:52.314Z,45.07
2017-10-18T13:50:26.748Z,44.80
2017-10-18T13:53:00.467Z,43.53
2017-10-18T13:55:34.069Z,43.23
2017-10-18T13:58:07.832Z,44.80
2017-10-18T14:00:41.591Z,40.23
2017-10-18T14:03:15.291Z,42.20
2017-10-18T14:05:49.132Z,43.40
2017-10-18T14:08:22.925Z,43.50
2017-10-18T14:10:57.601Z,43.50
2017-10-18T14:13:31.326Z,42.60
2017-10-18T14:16:05.821Z,41.00
2017-10-18T14:18:40.143Z,42.50
2017-10-18T14:21:13.876Z,41.90
2017-10-18T14:23:48.473Z,47.37
2017-10-18T14:26:22.204Z,41.27
2017-10-18T14:28:55.847Z,41.07
2017-10-18T14:31:29.473Z,42.73
2017-10-18T14:34:03.888Z,38.87
2017-10-18T14:36:38.320Z,40.07
2017-10-18T14:39:12.095Z,40.77
2017-10-18T14:41:45.941Z,39.87
2017-10-18T14:44:19.780Z,40.10
2017-10-18T14:46:53.577Z,43.80
2017-10-18T14:49:27.418Z,40.73
2017-10-18T14:52:01.087Z,42.07
2017-10-18T14:54:34.882Z,39.40
2017-10-18T14:57:08.664Z,40.37
2017-10-18T14:59:42.337Z,46.53
2017-10-18T15:02:16.184Z,42.47
2017-10-18T15:04:49.781Z,41.87
2017-10-18T15:07:23.482Z,45.47
2017-10-18T15:09:57.200Z,45.70
2017-10-18T15:12:31.036Z,44.47
2017-10-18T15:15:05.511Z,43.50
2017-10-18T15:17:39.313Z,45.17
2017-10-18T15:20:13.767Z,50.13
2017-10-18T15:22:47.368Z,47.93
2017-10-18T15:25:21.200Z,49.90
2017-10-18T15:27:54.857Z,44.40
2017-10-18T15:30:29.376Z,49.60
2017-10-18T15:33:02.988Z,50.43
2017-10-18T15:35:37.481Z,53.67
2017-10-18T15:38:11.229Z,54.77
2017-10-18T15:40:44.924Z,53.07
2017-10-18T15:43:18.529Z,55.43
2017-10-18T15:45:52.138Z,53.80
2017-10-18T15:48:25.735Z,58.03
2017-10-18T15:50:59.713Z,58.43
2017-10-18T15:53:33.500Z,55.30
2017-10-18T15:56:08.185Z,55.53
2017-10-18T15:58:41.893Z,59.93
2017-10-18T16:01:15.659Z,58.27
2017-10-18T16:03:49.377Z,65.93
2017-10-18T16:06:23.169Z,59.60
2017-10-18T16:08:56.899Z,59.47
2017-10-18T16:11:30.602Z,61.00
2017-10-18T16:14:04.374Z,66.93
2017-10-18T16:16:38.125Z,61.77
2017-10-18T16:19:11.799Z,64.40
2017-10-18T16:21:46.339Z,68.47
2017-10-18T16:24:20.733Z,69.90
2017-10-18T16:26:54.516Z,69.43
2017-10-18T16:29:28.271Z,72.73
2017-10-18T16:32:02.035Z,72.20
2017-10-18T16:34:35.713Z,77.47
2017-10-18T16:37:09.345Z,77.73
2017-10-18T16:39:43.176Z,77.00
2017-10-18T16:42:17.821Z,80.47
2017-10-18T16:44:51.521Z,81.60
2017-10-18T16:47:25.909Z,91.70
2017-10-18T16:49:59.748Z,96.70
2017-10-18T16:52:33.604Z,96.17
2017-10-18T16:55:07.457Z,98.57
2017-10-18T16:57:41.032Z,103.70
2017-10-18T17:00:15.750Z,96.23
2017-10-18T17:02:50.198Z,109.47
2017-10-18T17:05:23.757Z,107.03
2017-10-18T17:07:58.304Z,113.87
2017-10-18T17:10:32.025Z,115.73
2017-10-18T17:13:05.756Z,109.90
2017-10-18T17:15:39.858Z,117.00
2017-10-18T17:18:13.560Z,112.00
2017-10-18T17:20:47.312Z,112.17
2017-10-18T17:23:21.049Z,117.03
2017-10-18T17:25:54.840Z,114.20
2017-10-18T17:28:28.565Z,129.87
2017-10-18T17:31:03.169Z,125.97
2017-10-18T17:33:36.780Z,124.67
2017-10-18T17:36:12.096Z,117.37
2017-10-18T17:38:46.655Z,121.57
2017-10-18T17:41:20.341Z,132.47
2017-10-18T17:43:54.133Z,156.20
2017-10-18T17:46:27.956Z,148.07
2017-10-18T17:49:01.774Z,164.37
2017-10-18T17:51:36.473Z,158.53
2017-10-18T17:54:10.427Z,163.17
2017-10-18T17:56:44.142Z,175.63
2017-10-18T17:59:17.906Z,159.20
2017-10-18T18:01:51.721Z,173.67
2017-10-18T18:04:25.446Z,179.00
2017-10-18T18:07:00.020Z,174.80
2017-10-18T18:09:33.757Z,178.50
2017-10-18T18:12:08.857Z,187.03
2017-10-18T18:14:42.958Z,194.13
2017-10-18T18:17:16.581Z,197.33
2017-10-18T18:19:50.419Z,199.20
2017-10-18T18:22:25.034Z,185.47
2017-10-18T18:24:59.455Z,196.70
2017-10-18T18:27:33.972Z,182.50
2017-10-18T18:30:07.768Z,200.67
2017-10-18T18:32:41.849Z,209.70
2017-10-18T18:35:16.788Z,191.57
2017-10-18T18:37:50.639Z,211.07
2017-10-18T18:40:24.529Z,209.70
2017-10-18T18:42:58.936Z,204.83
2017-10-18T18:45:34.209Z,204.17
2017-10-18T18:48:07.852Z,200.10
2017-10-18T18:50:42.540Z,197.83
2017-10-18T18:53:17.234Z,193.33
2017-10-18T18:55:51.061Z,208.33
2017-10-18T18:58:26.248Z,188.43
2017-10-18T19:00:59.995Z,176.50
2017-10-18T19:03:33.745Z,165.43
2017-10-18T19:06:07.602Z,162.57
2017-10-18T19:08:41.443Z,162.60
2017-10-18T19:11:15.130Z,167.07
2017-10-18T19:13:49.625Z,191.27
2017-10-18T19:16:24.079Z,162.23
2017-10-18T19:18:57.909Z,189.40
2017-10-18T19:21:31.701Z,202.07
2017-10-18T19:24:05.491Z,185.67
2017-10-18T19:26:39.403Z,175.43
2017-10-18T19:29:13.173Z,201.37
2017-10-18T19:31:47.261Z,179.27
2017-10-18T19:34:21.962Z,175.93
2017-10-18T19:36:55.556Z,183.20
2017-10-18T19:39:29.653Z,192.10
2017-10-18T19:42:03.254Z,186.37
2017-10-18T19:44:38.209Z,166.97
2017-10-18T19:47:12.680Z,171.87
2017-10-18T19:49:46.513Z,160.43
2017-10-18T19:52:20.188Z,178.93
2017-10-18T19:54:53.912Z,171.40
2017-10-18T19:57:27.726Z,175.83
2017-10-18T20:00:01.392Z,198.63
2017-10-18T20:02:35.005Z,196.93
2017-10-18T20:05:09.532Z,214.33
2017-10-18T20:07:43.249Z,202.07
2017-10-18T20:10:17.752Z,190.83
2017-10-18T20:12:51.503Z,231.37
2017-10-18T20:15:25.275Z,231.43
2017-10-18T20:17:59.612Z,188.13
2017-10-18T20:20:33.418Z,208.23
2017-10-18T20:23:07.222Z,187.50
2017-10-18T20:25:41.825Z,244.27
2017-10-18T20:28:15.454Z,203.27
2017-10-18T20:30:49.123Z,196.63
2017-10-18T20:33:22.860Z,212.63
2017-10-18T20:35:56.636Z,206.33
2017-10-18T20:38:31.126Z,188.53
2017-10-18T20:41:04.808Z,201.50
2017-10-18T20:43:38.389Z,211.63
2017-10-18T20:46:12.873Z,212.57
2017-10-18T20:48:46.705Z,205.87
2017-10-18T20:51:20.468Z,213.93
2017-10-18T20:53:54.226Z,236.70
2017-10-18T20:56:27.969Z,232.67
2017-10-18T20:59:02.448Z,231.23
2017-10-18T21:01:36.227Z,226.20
2017-10-18T21:04:10.025Z,270.70
2017-10-18T21:06:43.659Z,278.97
2017-10-18T21:09:17.378Z,250.63
2017-10-18T21:11:51.147Z,191.17
2017-10-18T21:14:24.880Z,212.63
2017-10-18T21:16:59.289Z,220.13
2017-10-18T21:19:33.005Z,261.27
2017-10-18T21:22:06.649Z,237.00
2017-10-18T21:24:41.328Z,264.07
2017-10-18T21:27:15.082Z,260.53
2017-10-18T21:29:48.954Z,277.57
2017-10-18T21:32:23.695Z,282.43
2017-10-18T21:34:58.722Z,303.37
2017-10-18T21:37:33.127Z,275.97
2017-10-18T21:40:12.402Z,292.10
2017-10-18T21:42:53.381Z,282.03
2017-10-18T21:45:29.183Z,281.27
2017-10-18T21:48:02.884Z,286.03
2017-10-18T21:50:36.805Z,303.23
2017-10-18T21:53:10.538Z,252.03
2017-10-18T21:55:44.372Z,346.27
2017-10-18T21:58:18.120Z,357.43
2017-10-18T22:00:52.123Z,330.27
2017-10-18T22:03:26.531Z,561.97
2017-10-18T22:06:00.355Z,355.10
2017-10-18T22:08:34.173Z,308.90
2017-10-18T22:11:08.784Z,393.20
2017-10-18T22:13:42.531Z,316.37
2017-10-18T22:16:16.305Z,478.67
2017-10-18T22:18:50.616Z,576.27
2017-10-18T22:21:24.445Z,648.20
2017-10-18T22:23:58.185Z,351.63
2017-10-18T22:26:32.770Z,479.53
2017-10-18T22:29:07.211Z,315.93
2017-10-18T22:31:41.790Z,475.10
2017-10-18T22:34:15.836Z,493.93
2017-10-18T22:36:50.584Z,320.57
2017-10-18T22:39:24.721Z,388.93
2017-10-18T22:41:58.444Z,514.50
2017-10-18T22:44:32.217Z,550.77
2017-10-18T22:47:06.702Z,359.60
2017-10-18T22:49:40.533Z,422.10
2017-10-18T22:52:14.130Z,508.70
2017-10-18T22:54:47.913Z,359.00
2017-10-18T22:57:21.680Z,315.10
2017-10-18T22:59:55.514Z,929.93
2017-10-18T23:02:29.435Z,518.00
2017-10-18T23:05:03.892Z,386.17
2017-10-18T23:07:37.805Z,484.30
2017-10-18T23:10:11.480Z,354.80
2017-10-18T23:12:46.129Z,309.07
2017-10-18T23:15:20.643Z,458.17
2017-10-18T23:17:54.493Z,445.60
2017-10-18T23:20:28.241Z,920.00
2017-10-18T23:23:01.925Z,809.57
2017-10-18T23:25:35.609Z,384.30
2017-10-18T23:28:09.221Z,359.67
2017-10-18T23:30:42.980Z,292.27
2017-10-18T23:33:17.628Z,209.93
2017-10-18T23:35:52.126Z,303.10
2017-10-18T23:38:25.733Z,229.93
2017-10-18T23:40:59.479Z,205.80
2017-10-18T23:43:33.969Z,205.10
2017-10-18T23:46:07.699Z,153.40
2017-10-18T23:48:41.488Z,165.07
2017-10-18T23:51:15.204Z,162.50
2017-10-18T23:53:48.863Z,142.23
2017-10-18T23:56:22.618Z,145.73
2017-10-18T23:58:56.161Z,145.40
